createdAt,value
2023-04-29T00:00:00.145Z,244.18
2023-04-29T00:01:00.145Z,243.41
2023-04-29T00:02:00.275Z,241.52
2023-04-29T00:03:00.346Z,242.40
2023-04-29T00:04:00.373Z,247.66
2023-04-29T00:05:00.484Z,241.31
2023-04-29T00:06:00.476Z,240.59
2023-04-29T00:07:00.348Z,246.65
2023-04-29T00:08:00.495Z,245.32
2023-04-29T00:09:00.436Z,246.92
2023-04-29T00:10:00.467Z,242.83
2023-04-29T00:11:00.505Z,245.88
2023-04-29T00:12:00.592Z,242.16
2023-04-29T00:13:00.627Z,244.57
2023-04-29T00:14:00.593Z,240.81
2023-04-29T00:15:00.589Z,245.52
2023-04-29T00:16:00.638Z,243.91
2023-04-29T00:17:00.663Z,244.41
2023-04-29T00:18:00.633Z,243.71
2023-04-29T00:19:00.614Z,244.47
2023-04-29T00:20:00.650Z,242.31
2023-04-29T00:21:00.658Z,245.47
2023-04-29T00:22:00.649Z,245.11
2023-04-29T00:23:00.634Z,243.89
2023-04-29T00:24:00.640Z,245.65
2023-04-29T00:25:00.657Z,240.91
2023-04-29T00:26:00.644Z,244.56
2023-04-29T00:27:00.607Z,246.64
2023-04-29T00:28:00.663Z,245.82
2023-04-29T00:29:00.639Z,246.50
2023-04-29T00:30:00.608Z,242.61
2023-04-29T00:31:00.717Z,246.93
2023-04-29T00:32:00.676Z,247.46
2023-04-29T00:33:00.867Z,247.58
2023-04-29T00:34:00.704Z,245.56
2023-04-29T00:35:00.773Z,245.51
2023-04-29T00:36:00.735Z,246.59
2023-04-29T00:37:00.712Z,244.79
2023-04-29T00:38:00.736Z,244.16
2023-04-29T00:39:00.726Z,245.20
2023-04-29T00:40:00.765Z,245.67
2023-04-29T00:41:00.792Z,245.20
2023-04-29T00:42:00.779Z,246.36
2023-04-29T00:43:00.778Z,247.43
2023-04-29T00:44:00.763Z,244.00
2023-04-29T00:45:00.769Z,243.37
2023-04-29T00:46:00.792Z,247.32
2023-04-29T00:47:00.789Z,245.58
2023-04-29T00:48:00.798Z,248.81
2023-04-29T00:49:00.830Z,246.24
2023-04-29T00:50:00.861Z,244.38
2023-04-29T00:51:00.916Z,247.06
2023-04-29T00:52:00.872Z,246.65
2023-04-29T00:53:00.874Z,246.66
2023-04-29T00:54:00.918Z,244.91
2023-04-29T00:55:00.930Z,245.42
2023-04-29T00:56:00.959Z,242.15
2023-04-29T00:57:00.950Z,247.47
2023-04-29T00:58:00.919Z,245.69
2023-04-29T00:59:00.915Z,244.09
2023-04-29T01:00:00.930Z,244.93
2023-04-29T01:01:00.974Z,245.17
2023-04-29T01:02:01.017Z,245.94
2023-04-29T01:03:00.983Z,246.61
2023-04-29T01:04:01.133Z,246.98
2023-04-29T01:05:00.937Z,246.05
2023-04-29T01:06:00.944Z,246.47
2023-04-29T01:07:00.905Z,247.09
2023-04-29T01:08:00.903Z,243.94
2023-04-29T01:09:00.885Z,244.81
2023-04-29T01:10:00.934Z,246.38
2023-04-29T01:11:00.956Z,246.29
2023-04-29T01:12:00.901Z,246.34
2023-04-29T01:13:00.907Z,246.64
2023-04-29T01:14:00.925Z,248.37
2023-04-29T01:15:00.899Z,243.88
2023-04-29T01:16:00.996Z,243.99
2023-04-29T01:17:00.943Z,241.02
2023-04-29T01:18:01.033Z,247.75
2023-04-29T01:19:00.937Z,245.55
2023-04-29T01:20:01.000Z,244.47
2023-04-29T01:21:00.967Z,246.71
2023-04-29T01:22:01.019Z,247.65
2023-04-29T01:23:01.028Z,246.28
2023-04-29T01:24:01.026Z,246.45
2023-04-29T01:25:01.078Z,245.72
2023-04-29T01:26:01.069Z,245.88
2023-04-29T01:27:01.108Z,243.94
2023-04-29T01:28:01.129Z,244.53
2023-04-29T01:29:01.117Z,241.81
2023-04-29T01:30:01.115Z,245.93
2023-04-29T01:31:01.238Z,245.25
2023-04-29T01:32:01.184Z,243.33
2023-04-29T01:33:01.235Z,246.91
2023-04-29T01:34:01.210Z,244.20
2023-04-29T01:35:01.254Z,245.87
2023-04-29T01:36:01.226Z,244.72
2023-04-29T01:37:01.172Z,244.56
2023-04-29T01:38:01.222Z,248.24
2023-04-29T01:39:01.164Z,245.45
2023-04-29T01:40:01.196Z,246.53
2023-04-29T01:41:01.185Z,246.54
2023-04-29T01:42:01.195Z,244.65
2023-04-29T01:43:01.248Z,245.43
2023-04-29T01:44:01.213Z,243.40
2023-04-29T01:45:01.209Z,243.87
2023-04-29T01:46:01.172Z,244.37
2023-04-29T01:47:01.252Z,245.36
2023-04-29T01:48:01.203Z,244.73
2023-04-29T01:49:01.139Z,244.37
2023-04-29T01:50:01.162Z,243.58
2023-04-29T01:51:01.161Z,244.66
2023-04-29T01:52:01.227Z,246.15
2023-04-29T01:53:01.149Z,242.91
2023-04-29T01:54:01.169Z,241.52
2023-04-29T01:55:01.158Z,244.89
2023-04-29T01:56:01.149Z,242.98
2023-04-29T01:57:01.214Z,245.52
2023-04-29T01:58:01.156Z,244.05
2023-04-29T01:59:01.194Z,245.66
2023-04-29T02:00:01.185Z,244.48
2023-04-29T02:01:01.199Z,247.08
2023-04-29T02:02:01.151Z,242.39
2023-04-29T02:03:01.161Z,244.75
2023-04-29T02:04:01.311Z,244.68
2023-04-29T02:05:01.232Z,247.39
2023-04-29T02:06:01.099Z,248.40
2023-04-29T02:07:01.119Z,245.04
2023-04-29T02:08:01.135Z,246.74
2023-04-29T02:09:01.077Z,244.89
2023-04-29T02:10:01.091Z,248.62
2023-04-29T02:11:01.150Z,245.18
2023-04-29T02:12:01.117Z,246.97
2023-04-29T02:13:01.114Z,242.03
2023-04-29T02:14:01.096Z,244.00
2023-04-29T02:15:01.131Z,243.92
2023-04-29T02:16:01.173Z,243.62
2023-04-29T02:17:01.075Z,246.34
2023-04-29T02:18:01.143Z,246.46
2023-04-29T02:19:01.086Z,244.11
2023-04-29T02:20:01.126Z,247.53
2023-04-29T02:21:01.048Z,245.48
2023-04-29T02:22:01.064Z,244.47
2023-04-29T02:23:01.074Z,247.93
2023-04-29T02:24:01.078Z,242.29
2023-04-29T02:25:01.184Z,243.79
2023-04-29T02:26:01.064Z,245.34
2023-04-29T02:27:01.098Z,243.88
2023-04-29T02:28:01.094Z,245.36
2023-04-29T02:29:01.105Z,245.42
2023-04-29T02:30:01.113Z,244.27
2023-04-29T02:31:01.122Z,244.94
2023-04-29T02:32:01.116Z,241.84
2023-04-29T02:33:01.146Z,243.63
2023-04-29T02:34:01.085Z,247.00
2023-04-29T02:35:01.107Z,247.17
2023-04-29T02:36:01.071Z,241.76
2023-04-29T02:37:01.064Z,245.70
2023-04-29T02:38:01.072Z,246.23
2023-04-29T02:39:01.094Z,242.08
2023-04-29T02:40:01.125Z,243.53
2023-04-29T02:41:01.089Z,244.80
2023-04-29T02:42:01.074Z,240.17
2023-04-29T02:43:01.084Z,245.86
2023-04-29T02:44:01.113Z,241.03
2023-04-29T02:45:01.156Z,242.11
2023-04-29T02:46:01.105Z,243.60
2023-04-29T02:47:01.076Z,241.57
2023-04-29T02:48:01.185Z,245.06
2023-04-29T02:49:01.107Z,242.90
2023-04-29T02:50:01.149Z,247.66
2023-04-29T02:51:01.048Z,245.67
2023-04-29T02:52:01.085Z,246.10
2023-04-29T02:53:01.076Z,247.67
2023-04-29T02:54:01.078Z,245.41
2023-04-29T02:55:01.097Z,246.31
2023-04-29T02:56:01.086Z,244.93
2023-04-29T02:57:01.070Z,244.52
2023-04-29T02:58:01.083Z,242.92
2023-04-29T02:59:01.093Z,247.09
2023-04-29T03:00:01.096Z,244.90
2023-04-29T03:01:01.155Z,246.82
2023-04-29T03:02:01.113Z,246.14
2023-04-29T03:03:01.279Z,243.07
2023-04-29T03:04:01.233Z,247.64
2023-04-29T03:05:01.130Z,245.47
2023-04-29T03:06:01.095Z,243.96
2023-04-29T03:07:01.130Z,247.54
2023-04-29T03:08:01.116Z,245.80
2023-04-29T03:09:01.119Z,241.76
2023-04-29T03:10:01.137Z,243.27
2023-04-29T03:11:01.106Z,242.43
2023-04-29T03:12:01.223Z,242.51
2023-04-29T03:13:01.160Z,246.37
2023-04-29T03:14:01.138Z,244.34
2023-04-29T03:15:01.202Z,240.50
2023-04-29T03:16:01.176Z,244.94
2023-04-29T03:17:01.239Z,243.61
2023-04-29T03:18:01.219Z,245.02
2023-04-29T03:19:01.219Z,242.19
2023-04-29T03:20:01.217Z,244.03
2023-04-29T03:21:01.200Z,246.05
2023-04-29T03:22:01.215Z,244.70
2023-04-29T03:23:01.210Z,244.39
2023-04-29T03:24:01.227Z,244.89
2023-04-29T03:25:01.252Z,244.33
2023-04-29T03:26:01.237Z,245.59
2023-04-29T03:27:01.234Z,246.24
2023-04-29T03:28:01.211Z,243.82
2023-04-29T03:29:01.194Z,245.63
2023-04-29T03:30:01.219Z,243.79
2023-04-29T03:31:01.418Z,243.33
2023-04-29T03:32:01.195Z,243.15
2023-04-29T03:33:01.296Z,244.43
2023-04-29T03:34:01.218Z,245.32
2023-04-29T03:35:01.228Z,245.88
2023-04-29T03:36:01.260Z,247.08
2023-04-29T03:37:01.302Z,246.04
2023-04-29T03:38:01.199Z,244.19
2023-04-29T03:39:01.222Z,243.31
2023-04-29T03:40:01.220Z,243.91
2023-04-29T03:41:01.261Z,247.16
2023-04-29T03:42:01.237Z,247.36
2023-04-29T03:43:01.252Z,244.44
2023-04-29T03:44:01.244Z,243.71
2023-04-29T03:45:01.206Z,246.21
2023-04-29T03:46:01.297Z,247.08
2023-04-29T03:47:01.237Z,243.55
2023-04-29T03:48:01.313Z,245.38
2023-04-29T03:49:01.240Z,242.99
2023-04-29T03:50:01.255Z,245.68
2023-04-29T03:51:01.223Z,244.20
2023-04-29T03:52:01.235Z,242.22
2023-04-29T03:53:01.224Z,243.71
2023-04-29T03:54:01.235Z,242.21
2023-04-29T03:55:01.307Z,240.45
2023-04-29T03:56:01.274Z,245.05
2023-04-29T03:57:01.258Z,247.51
2023-04-29T03:58:01.275Z,245.02
2023-04-29T03:59:01.276Z,243.31
2023-04-29T04:00:01.299Z,244.95
2023-04-29T04:01:01.252Z,246.94
2023-04-29T04:02:01.246Z,242.58
2023-04-29T04:03:02.827Z,245.41
2023-04-29T04:04:01.435Z,249.30
2023-04-29T04:05:01.303Z,244.39
2023-04-29T04:06:01.287Z,241.08
2023-04-29T04:07:01.246Z,241.93
2023-04-29T04:08:01.225Z,242.58
2023-04-29T04:09:01.216Z,243.75
2023-04-29T04:10:01.220Z,242.22
2023-04-29T04:11:01.222Z,241.85
2023-04-29T04:12:01.199Z,242.06
2023-04-29T04:13:01.223Z,242.73
2023-04-29T04:14:01.192Z,242.07
2023-04-29T04:15:01.214Z,243.80
2023-04-29T04:16:01.332Z,243.08
2023-04-29T04:17:01.168Z,244.21
2023-04-29T04:18:01.245Z,243.01
2023-04-29T04:19:01.173Z,243.22
2023-04-29T04:20:01.200Z,245.34
2023-04-29T04:21:01.134Z,245.75
2023-04-29T04:22:01.194Z,242.36
2023-04-29T04:23:01.142Z,242.40
2023-04-29T04:24:01.142Z,245.41
2023-04-29T04:25:01.112Z,238.70
2023-04-29T04:26:01.114Z,241.72
2023-04-29T04:27:01.130Z,243.27
2023-04-29T04:28:01.129Z,243.30
2023-04-29T04:29:01.148Z,239.65
2023-04-29T04:30:01.073Z,243.57
2023-04-29T04:31:01.043Z,245.37
2023-04-29T04:32:01.101Z,242.94
2023-04-29T04:33:01.110Z,242.92
2023-04-29T04:34:01.075Z,241.90
2023-04-29T04:35:01.022Z,240.80
2023-04-29T04:36:01.026Z,243.20
2023-04-29T04:37:01.016Z,242.91
2023-04-29T04:38:01.007Z,241.45
2023-04-29T04:39:01.070Z,241.93
2023-04-29T04:40:01.032Z,238.74
2023-04-29T04:41:01.028Z,240.79
2023-04-29T04:42:01.022Z,244.87
2023-04-29T04:43:00.990Z,241.35
2023-04-29T04:44:01.004Z,244.64
2023-04-29T04:45:01.006Z,244.93
2023-04-29T04:46:01.026Z,241.08
2023-04-29T04:47:00.978Z,242.30
2023-04-29T04:48:01.004Z,242.34
2023-04-29T04:49:00.934Z,243.54
2023-04-29T04:50:00.931Z,243.37
2023-04-29T04:51:01.008Z,241.95
2023-04-29T04:52:00.986Z,239.69
2023-04-29T04:53:00.960Z,242.34
2023-04-29T04:54:00.904Z,241.83
2023-04-29T04:55:00.917Z,240.41
2023-04-29T04:56:00.918Z,241.99
2023-04-29T04:57:00.904Z,242.77
2023-04-29T04:58:00.933Z,242.40
2023-04-29T04:59:00.873Z,246.60
2023-04-29T05:00:00.873Z,243.35
2023-04-29T05:01:00.958Z,244.48
2023-04-29T05:02:00.877Z,243.25
2023-04-29T05:03:00.986Z,240.13
2023-04-29T05:04:01.008Z,246.09
2023-04-29T05:05:00.840Z,242.80
2023-04-29T05:06:00.847Z,244.62
2023-04-29T05:07:00.843Z,248.19
2023-04-29T05:08:00.835Z,241.53
2023-04-29T05:09:00.819Z,241.21
2023-04-29T05:10:00.799Z,239.16
2023-04-29T05:11:00.820Z,242.03
2023-04-29T05:12:00.828Z,242.98
2023-04-29T05:13:00.822Z,241.06
2023-04-29T05:14:00.831Z,241.80
2023-04-29T05:15:00.858Z,242.86
2023-04-29T05:16:00.890Z,243.70
2023-04-29T05:17:00.957Z,241.96
2023-04-29T05:18:01.029Z,243.15
2023-04-29T05:19:01.067Z,240.27
2023-04-29T05:20:01.111Z,239.65
2023-04-29T05:21:01.129Z,241.54
2023-04-29T05:22:01.188Z,238.20
2023-04-29T05:23:01.235Z,238.79
2023-04-29T05:24:01.277Z,241.73
2023-04-29T05:25:01.301Z,242.90
2023-04-29T05:26:01.364Z,244.23
2023-04-29T05:27:01.429Z,243.09
2023-04-29T05:28:01.479Z,242.66
2023-04-29T05:29:01.487Z,240.71
2023-04-29T05:30:01.587Z,242.15
2023-04-29T05:31:01.647Z,241.33
2023-04-29T05:32:01.707Z,241.75
2023-04-29T05:33:01.799Z,238.68
2023-04-29T05:34:01.784Z,239.49
2023-04-29T05:35:01.857Z,241.62
2023-04-29T05:36:01.846Z,236.20
2023-04-29T05:37:01.978Z,241.09
2023-04-29T05:38:02.009Z,240.99
2023-04-29T05:39:02.047Z,239.33
2023-04-29T05:40:02.119Z,239.57
2023-04-29T05:41:02.130Z,237.33
2023-04-29T05:42:02.282Z,237.71
2023-04-29T05:43:02.239Z,239.53
2023-04-29T05:44:02.309Z,238.50
2023-04-29T05:45:02.364Z,240.27
2023-04-29T05:46:02.475Z,236.96
2023-04-29T05:47:02.492Z,236.66
2023-04-29T05:48:02.576Z,237.61
2023-04-29T05:49:02.560Z,241.32
2023-04-29T05:50:02.746Z,236.02
2023-04-29T05:51:02.659Z,237.32
2023-04-29T05:52:02.723Z,239.68
2023-04-29T05:53:02.766Z,240.05
2023-04-29T05:54:02.837Z,236.56
2023-04-29T05:55:02.951Z,239.29
2023-04-29T05:56:02.918Z,237.03
2023-04-29T05:57:03.014Z,238.53
2023-04-29T05:58:03.009Z,237.05
2023-04-29T05:59:03.081Z,237.80
2023-04-29T06:00:03.107Z,236.45
2023-04-29T06:01:03.219Z,237.86
2023-04-29T06:02:03.207Z,235.97
2023-04-29T06:03:03.335Z,237.94
2023-04-29T06:04:03.489Z,236.63
2023-04-29T06:05:03.520Z,237.30
2023-04-29T06:06:03.461Z,240.76
2023-04-29T06:07:03.449Z,239.86
2023-04-29T06:08:03.494Z,238.92
2023-04-29T06:09:05.235Z,237.38
2023-04-29T06:10:03.552Z,237.57
2023-04-29T06:11:03.536Z,237.86
2023-04-29T06:12:03.541Z,237.94
2023-04-29T06:13:03.534Z,236.88
2023-04-29T06:14:03.533Z,238.81
2023-04-29T06:15:03.549Z,239.15
2023-04-29T06:16:03.527Z,239.97
2023-04-29T06:17:03.502Z,238.77
2023-04-29T06:18:03.551Z,235.87
2023-04-29T06:19:03.524Z,239.97
2023-04-29T06:20:03.537Z,238.84
2023-04-29T06:21:03.580Z,234.53
2023-04-29T06:22:03.644Z,239.98
2023-04-29T06:23:03.633Z,237.87
2023-04-29T06:24:03.696Z,234.70
2023-04-29T06:25:03.706Z,241.63
2023-04-29T06:26:03.764Z,240.99
2023-04-29T06:27:03.791Z,241.17
2023-04-29T06:28:03.818Z,235.33
2023-04-29T06:29:03.818Z,242.29
2023-04-29T06:30:03.918Z,238.42
2023-04-29T06:31:03.962Z,239.02
2023-04-29T06:32:03.980Z,240.62
2023-04-29T06:33:04.024Z,240.03
2023-04-29T06:34:04.020Z,240.89
2023-04-29T06:35:04.047Z,241.41
2023-04-29T06:36:04.079Z,240.02
2023-04-29T06:37:04.094Z,239.45
2023-04-29T06:38:04.171Z,240.57
2023-04-29T06:39:04.100Z,241.15
2023-04-29T06:40:04.114Z,241.84
2023-04-29T06:41:04.115Z,243.67
2023-04-29T06:42:04.148Z,242.98
2023-04-29T06:43:04.146Z,241.61
2023-04-29T06:44:04.144Z,243.63
2023-04-29T06:45:04.131Z,241.15
2023-04-29T06:46:04.209Z,243.85
2023-04-29T06:47:04.320Z,243.41
2023-04-29T06:48:04.288Z,242.71
2023-04-29T06:49:04.393Z,243.19
2023-04-29T06:50:04.391Z,245.60
2023-04-29T06:51:04.477Z,250.00
2023-04-29T06:52:04.515Z,247.13
2023-04-29T06:53:04.572Z,247.95
2023-04-29T06:54:04.621Z,245.81
2023-04-29T06:55:04.664Z,249.01
2023-04-29T06:56:04.803Z,248.89
2023-04-29T06:57:04.819Z,247.46
2023-04-29T06:58:04.838Z,248.59
2023-04-29T06:59:04.900Z,246.80
2023-04-29T07:00:04.992Z,247.43
2023-04-29T07:01:05.108Z,246.76
2023-04-29T07:02:05.082Z,246.72
2023-04-29T07:03:05.367Z,242.24
2023-04-29T07:04:05.183Z,245.76
2023-04-29T07:05:05.199Z,245.23
2023-04-29T07:06:05.280Z,244.53
2023-04-29T07:07:05.288Z,244.65
2023-04-29T07:08:05.321Z,246.36
2023-04-29T07:09:05.353Z,242.49
2023-04-29T07:10:05.335Z,243.90
2023-04-29T07:11:05.414Z,246.06
2023-04-29T07:12:05.357Z,244.68
2023-04-29T07:13:05.429Z,245.85
2023-04-29T07:14:05.407Z,245.49
2023-04-29T07:15:05.418Z,247.22
2023-04-29T07:16:05.424Z,243.65
2023-04-29T07:17:05.492Z,244.64
2023-04-29T07:18:05.509Z,248.19
2023-04-29T07:19:05.446Z,247.65
2023-04-29T07:20:05.475Z,246.68
2023-04-29T07:21:05.509Z,247.47
2023-04-29T07:22:05.567Z,248.26
2023-04-29T07:23:05.605Z,248.70
2023-04-29T07:24:05.706Z,248.38
2023-04-29T07:25:05.767Z,247.14
2023-04-29T07:26:05.829Z,248.71
2023-04-29T07:27:05.892Z,248.83
2023-04-29T07:28:05.939Z,248.98
2023-04-29T07:29:05.986Z,247.97
2023-04-29T07:30:06.038Z,246.86
2023-04-29T07:31:06.163Z,248.63
2023-04-29T07:32:06.150Z,247.85
2023-04-29T07:33:06.344Z,246.79
2023-04-29T07:34:06.293Z,245.72
2023-04-29T07:35:06.321Z,246.69
2023-04-29T07:36:06.400Z,249.92
2023-04-29T07:37:06.440Z,246.25
2023-04-29T07:38:06.481Z,246.91
2023-04-29T07:39:06.548Z,245.70
2023-04-29T07:40:06.608Z,247.03
2023-04-29T07:41:06.636Z,248.86
2023-04-29T07:42:06.755Z,247.49
2023-04-29T07:43:06.762Z,248.67
2023-04-29T07:44:06.809Z,247.68
2023-04-29T07:45:06.880Z,247.14
2023-04-29T07:46:06.942Z,248.78
2023-04-29T07:47:06.985Z,246.59
2023-04-29T07:48:07.057Z,246.90
2023-04-29T07:49:07.116Z,246.27
2023-04-29T07:50:07.096Z,243.73
2023-04-29T07:51:07.260Z,246.69
2023-04-29T07:52:07.251Z,246.11
2023-04-29T07:53:07.346Z,246.21
2023-04-29T07:54:07.334Z,247.70
2023-04-29T07:55:07.370Z,248.51
2023-04-29T07:56:07.466Z,246.58
2023-04-29T07:57:07.500Z,248.14
2023-04-29T07:58:07.571Z,245.63
2023-04-29T07:59:07.585Z,246.80
2023-04-29T08:00:07.614Z,249.58
2023-04-29T08:01:07.702Z,246.72
2023-04-29T08:02:07.696Z,246.97
2023-04-29T08:03:07.973Z,247.14
2023-04-29T08:04:08.150Z,246.96
2023-04-29T08:05:08.555Z,246.87
2023-04-29T08:06:08.038Z,247.59
2023-04-29T08:07:07.852Z,247.41
2023-04-29T08:08:07.976Z,246.23
2023-04-29T08:09:07.903Z,246.85
2023-04-29T08:10:07.986Z,248.30
2023-04-29T08:11:08.078Z,244.55
2023-04-29T08:12:08.020Z,248.32
2023-04-29T08:13:08.021Z,247.53
2023-04-29T08:14:08.110Z,245.58
2023-04-29T08:15:09.804Z,249.33
2023-04-29T08:16:08.050Z,248.12
2023-04-29T08:17:08.160Z,247.66
2023-04-29T08:18:08.172Z,249.22
2023-04-29T08:19:08.090Z,247.97
2023-04-29T08:20:08.129Z,248.74
2023-04-29T08:21:08.143Z,247.05
2023-04-29T08:22:08.119Z,247.02
2023-04-29T08:23:08.148Z,245.84
2023-04-29T08:24:08.103Z,245.29
2023-04-29T08:25:08.119Z,244.84
2023-04-29T08:26:08.103Z,248.23
2023-04-29T08:27:08.132Z,246.10
2023-04-29T08:28:08.086Z,247.47
2023-04-29T08:29:08.131Z,249.11
2023-04-29T08:30:08.112Z,244.80
2023-04-29T08:31:08.095Z,248.45
2023-04-29T08:32:08.210Z,246.61
2023-04-29T08:33:08.240Z,249.76
2023-04-29T08:34:08.150Z,248.39
2023-04-29T08:35:08.182Z,246.32
2023-04-29T08:36:08.209Z,246.89
2023-04-29T08:37:08.254Z,242.46
2023-04-29T08:38:08.339Z,245.18
2023-04-29T08:39:08.366Z,246.15
2023-04-29T08:40:08.406Z,247.34
2023-04-29T08:41:08.675Z,248.65
2023-04-29T08:42:08.514Z,241.93
2023-04-29T08:43:08.621Z,245.72
2023-04-29T08:44:08.680Z,244.66
2023-04-29T08:45:08.714Z,243.98
2023-04-29T08:46:08.827Z,247.20
2023-04-29T08:47:08.853Z,239.52
2023-04-29T08:48:08.930Z,242.04
2023-04-29T08:49:08.948Z,240.17
2023-04-29T08:50:08.969Z,244.87
2023-04-29T08:51:08.976Z,246.14
2023-04-29T08:52:09.070Z,244.13
2023-04-29T08:53:09.066Z,241.40
2023-04-29T08:54:09.159Z,237.33
2023-04-29T08:55:09.156Z,242.57
2023-04-29T08:56:09.211Z,242.38
2023-04-29T08:57:09.267Z,242.27
2023-04-29T08:58:09.293Z,241.86
2023-04-29T08:59:09.310Z,240.92
2023-04-29T09:00:09.348Z,237.99
2023-04-29T09:01:09.411Z,249.62
2023-04-29T09:02:09.387Z,244.75
2023-04-29T09:03:09.458Z,236.03
2023-04-29T09:04:09.488Z,238.08
2023-04-29T09:05:09.488Z,237.81
2023-04-29T09:06:09.477Z,237.83
2023-04-29T09:07:09.493Z,231.14
2023-04-29T09:08:09.559Z,232.26
2023-04-29T09:09:09.567Z,237.10
2023-04-29T09:10:09.598Z,233.52
2023-04-29T09:11:09.614Z,232.98
2023-04-29T09:12:09.623Z,228.69
2023-04-29T09:13:09.622Z,228.70
2023-04-29T09:14:09.641Z,230.15
2023-04-29T09:15:09.629Z,229.49
2023-04-29T09:16:09.711Z,227.09
2023-04-29T09:17:09.691Z,224.30
2023-04-29T09:18:09.723Z,224.99
2023-04-29T09:19:09.681Z,221.90
2023-04-29T09:20:09.698Z,223.37
2023-04-29T09:21:09.746Z,219.63
2023-04-29T09:22:09.712Z,224.06
2023-04-29T09:23:09.755Z,220.19
2023-04-29T09:24:09.735Z,223.36
2023-04-29T09:25:09.746Z,224.78
2023-04-29T09:26:09.743Z,224.43
2023-04-29T09:27:09.713Z,222.28
2023-04-29T09:28:09.725Z,222.42
2023-04-29T09:29:09.719Z,220.22
2023-04-29T09:30:09.726Z,219.04
2023-04-29T09:31:09.747Z,217.56
2023-04-29T09:32:09.761Z,219.59
2023-04-29T09:33:09.813Z,215.98
2023-04-29T09:34:09.784Z,216.99
2023-04-29T09:35:09.729Z,217.65
2023-04-29T09:36:09.722Z,218.00
2023-04-29T09:37:09.786Z,214.33
2023-04-29T09:38:09.754Z,211.98
2023-04-29T09:39:09.758Z,211.90
2023-04-29T09:40:24.416Z,215.16
2023-04-29T09:42:28.499Z,25.00
2023-04-29T09:43:28.470Z,25.00
2023-04-29T09:44:29.186Z,25.00
2023-04-29T09:45:28.445Z,25.00
2023-04-29T09:46:28.502Z,25.00
2023-04-29T09:47:28.476Z,25.00
2023-04-29T09:48:28.427Z,25.00
2023-04-29T09:49:28.430Z,27.63
2023-04-29T09:50:28.416Z,27.91
2023-04-29T09:51:28.399Z,28.37
2023-04-29T09:52:28.379Z,30.26
2023-04-29T09:53:28.434Z,30.56
2023-04-29T09:54:28.489Z,29.07
2023-04-29T09:55:28.446Z,30.72
2023-04-29T10:00:38.547Z,25.00
2023-04-29T10:01:38.590Z,25.00
2023-04-29T10:02:38.660Z,25.00
2023-04-29T10:03:39.369Z,25.00
2023-04-29T10:04:40.098Z,25.00
2023-04-29T10:05:38.702Z,25.00
2023-04-29T10:06:38.709Z,23.47
2023-04-29T10:07:38.756Z,25.00
2023-04-29T10:08:38.763Z,25.00
2023-04-29T10:09:38.733Z,25.00
2023-04-29T10:10:38.764Z,24.87
2023-04-29T10:11:38.776Z,25.75
2023-04-29T10:12:38.858Z,25.00
2023-04-29T10:13:38.980Z,25.00
2023-04-29T10:14:38.890Z,25.69
2023-04-29T10:15:39.000Z,25.00
2023-04-29T10:16:39.050Z,25.94
2023-04-29T10:17:39.097Z,26.12
2023-04-29T10:18:39.109Z,25.00
2023-04-29T10:19:39.164Z,28.08
2023-04-29T10:20:39.244Z,27.53
2023-04-29T10:21:39.326Z,25.00
2023-04-29T10:22:39.376Z,25.68
2023-04-29T10:23:39.425Z,27.52
2023-04-29T10:24:39.480Z,25.47
2023-04-29T10:25:39.557Z,27.16
2023-04-29T10:26:39.596Z,25.00
2023-04-29T10:27:39.684Z,25.00
2023-04-29T10:28:39.688Z,30.19
2023-04-29T10:29:39.795Z,27.60
2023-04-29T10:30:39.798Z,25.00
2023-04-29T10:31:39.992Z,26.93
2023-04-29T10:32:50.519Z,28.92
2023-04-29T10:33:40.997Z,29.15
2023-04-29T10:34:39.927Z,29.30
2023-04-29T10:35:39.929Z,29.53
2023-04-29T10:36:39.932Z,26.59
2023-04-29T10:37:39.877Z,28.95
2023-04-29T10:38:39.872Z,30.21
2023-04-29T10:39:39.871Z,27.27
2023-04-29T10:40:39.868Z,28.95
2023-04-29T10:41:39.847Z,27.06
2023-04-29T10:42:39.904Z,25.80
2023-04-29T10:43:39.942Z,31.29
2023-04-29T10:44:39.982Z,29.44
2023-04-29T10:45:40.044Z,29.58
2023-04-29T10:46:40.082Z,26.94
2023-04-29T10:47:40.197Z,28.16
2023-04-29T10:48:40.159Z,27.24
2023-04-29T10:49:40.228Z,28.31
2023-04-29T10:50:40.303Z,26.97
2023-04-29T10:51:40.329Z,26.98
2023-04-29T10:52:40.380Z,27.40
2023-04-29T10:53:40.424Z,25.00
2023-04-29T10:54:40.472Z,26.24
2023-04-29T10:55:40.511Z,29.08
2023-04-29T10:56:40.580Z,31.09
2023-04-29T10:57:40.613Z,29.23
2023-04-29T10:58:40.653Z,29.16
2023-04-29T10:59:40.673Z,27.57
2023-04-29T11:00:40.729Z,30.09
2023-04-29T11:01:40.757Z,28.60
2023-04-29T11:02:41.000Z,29.93
2023-04-29T11:03:41.056Z,30.79
2023-04-29T11:04:40.989Z,31.62
2023-04-29T11:05:40.894Z,28.87
2023-04-29T11:06:40.939Z,31.81
2023-04-29T11:07:41.065Z,31.30
2023-04-29T11:08:41.058Z,32.12
2023-04-29T11:09:41.072Z,32.16
2023-04-29T11:10:41.134Z,31.06
2023-04-29T11:11:41.125Z,26.51
2023-04-29T11:12:41.152Z,32.90
2023-04-29T11:13:41.210Z,32.79
2023-04-29T11:14:41.210Z,33.97
2023-04-29T11:15:41.225Z,27.01
2023-04-29T11:16:41.302Z,30.53
2023-04-29T11:17:41.440Z,30.03
2023-04-29T11:18:41.357Z,29.66
2023-04-29T11:19:41.311Z,33.96
2023-04-29T11:20:41.359Z,30.71
2023-04-29T11:21:41.398Z,30.09
2023-04-29T11:22:41.389Z,28.71
2023-04-29T11:23:41.421Z,31.33
2023-04-29T11:24:41.437Z,30.90
2023-04-29T11:25:41.444Z,32.65
2023-04-29T11:26:41.443Z,30.92
2023-04-29T11:27:41.516Z,29.22
2023-04-29T11:28:41.522Z,31.26
2023-04-29T11:29:41.530Z,29.34
2023-04-29T11:30:41.648Z,29.36
2023-04-29T11:31:41.705Z,27.35
2023-04-29T11:32:41.734Z,28.81
2023-04-29T11:33:41.670Z,31.14
2023-04-29T11:34:41.702Z,27.64
2023-04-29T11:35:41.769Z,25.10
2023-04-29T11:36:41.782Z,27.00
2023-04-29T11:37:41.809Z,28.53
2023-04-29T11:38:41.853Z,30.34
2023-04-29T11:39:41.890Z,25.00
2023-04-29T11:40:41.912Z,29.19
2023-04-29T11:41:41.919Z,27.03
2023-04-29T11:42:41.942Z,26.67
2023-04-29T11:43:41.978Z,28.81
2023-04-29T11:44:42.030Z,31.88
2023-04-29T11:45:42.127Z,25.00
2023-04-29T11:46:42.156Z,30.06
2023-04-29T11:47:42.201Z,32.43
2023-04-29T11:48:42.211Z,26.45
2023-04-29T11:49:42.228Z,27.94
2023-04-29T11:50:42.279Z,27.13
2023-04-29T11:51:42.315Z,27.58
2023-04-29T11:52:42.403Z,30.02
2023-04-29T11:53:42.401Z,26.93
2023-04-29T11:54:42.441Z,27.29
2023-04-29T11:55:42.507Z,27.49
2023-04-29T11:56:42.524Z,26.36
2023-04-29T11:57:42.563Z,28.48
2023-04-29T11:58:42.647Z,27.06
2023-04-29T11:59:42.678Z,29.26
2023-04-29T12:00:42.757Z,26.17
2023-04-29T12:01:42.810Z,26.66
2023-04-29T12:02:42.959Z,25.70
2023-04-29T12:03:42.956Z,27.36
2023-04-29T12:04:43.031Z,30.25
2023-04-29T12:05:43.054Z,26.23
2023-04-29T12:06:43.062Z,26.91
2023-04-29T12:07:43.116Z,26.42
2023-04-29T12:08:43.156Z,29.07
2023-04-29T12:09:43.237Z,26.12
2023-04-29T12:10:43.273Z,25.41
2023-04-29T12:11:43.302Z,26.99
2023-04-29T12:12:43.363Z,25.93
2023-04-29T12:13:43.400Z,25.36
2023-04-29T12:14:43.468Z,26.78
2023-04-29T12:15:43.542Z,28.22
2023-04-29T12:16:43.596Z,28.47
2023-04-29T12:17:43.638Z,28.37
2023-04-29T12:18:43.663Z,30.35
2023-04-29T12:19:43.702Z,26.44
2023-04-29T12:20:43.749Z,28.65
2023-04-29T12:21:43.762Z,28.69
2023-04-29T12:22:43.841Z,27.27
2023-04-29T12:23:43.862Z,28.90
2023-04-29T12:24:43.940Z,29.60
2023-04-29T12:25:44.000Z,26.17
2023-04-29T12:26:44.007Z,30.41
2023-04-29T12:27:44.077Z,31.99
2023-04-29T12:28:44.124Z,30.48
2023-04-29T12:29:44.194Z,31.66
2023-04-29T12:30:44.203Z,28.38
2023-04-29T12:31:44.306Z,31.93
2023-04-29T12:32:44.362Z,32.50
2023-04-29T12:33:44.350Z,30.20
2023-04-29T12:34:44.354Z,29.71
2023-04-29T12:35:44.423Z,30.80
2023-04-29T12:36:44.484Z,29.10
2023-04-29T12:37:44.483Z,31.44
2023-04-29T12:38:44.550Z,28.98